Time;durP1;ratioP1;P1;durP2;ratioP2;P2;SDS_P1;SDS_P2;PMS_P1;PMS_P2;Temp;Humidity;BMP_temperature;BMP_pressure;BME280_temperature;BME280_humidity;BME280_pressure;Samples;Min_cycle;Max_cycle;Signal;HPM_P1;HPM_P2
2022/08/29 00:00:22;;;;;;;;;;;;;;;15.79;75.19;102199.19;5114898;28;20118;-35
2022/08/29 00:02:50;;;;;;;3.72;1.38;;;;;;;15.53;78.32;102192.19;5114928;28;19912;-35
2022/08/29 00:05:19;;;;;;;4.07;1.45;;;;;;;15.55;78.60;102200.97;5114796;28;20034;-35
2022/08/29 00:07:44;;;;;;;4.13;1.70;;;;;;;15.51;78.41;102194.31;5115280;28;20039;-35
2022/08/29 00:10:09;;;;;;;;;;;;;;;15.70;75.72;102192.38;5115148;28;20031;-35
2022/08/29 00:12:36;;;;;;;4.10;1.52;;;;;;;15.45;77.91;102187.88;5115253;28;19915;-35
2022/08/29 00:15:04;;;;;;;4.55;1.80;;;;;;;15.38;78.68;102192.59;5114649;28;20026;-35
2022/08/29 00:17:30;;;;;;;4.90;1.65;;;;;;;15.40;78.99;102197.81;5114850;28;20050;-35
2022/08/29 00:19:55;;;;;;;;;;;;;;;15.56;76.02;102205.34;5114810;28;20462;-34
2022/08/29 00:22:20;;;;;;;6.17;1.80;;;;;;;15.30;78.90;102186.63;5114212;28;19995;-34
2022/08/29 00:24:45;;;;;;;;;;;;;;;15.54;76.43;102196.56;5115323;28;20106;-35
2022/08/29 00:27:11;;;;;;;4.13;1.75;;;;;;;15.27;78.76;102187.09;5114786;28;19919;-35
2022/08/29 00:29:36;;;;;;;;;;;;;;;15.50;76.00;102203.56;5114713;28;20122;-35
2022/08/29 00:32:01;;;;;;;6.00;1.90;;;;;;;15.24;79.08;102195.75;5114300;28;19951;-35
2022/08/29 00:34:27;;;;;;;;;;;;;;;15.42;76.41;102202.00;5114253;28;20059;-35
2022/08/29 00:36:53;;;;;;;5.00;2.20;;;;;;;15.25;79.07;102200.13;5114174;28;19927;-35
2022/08/29 00:39:19;;;;;;;3.42;1.80;;;;;;;15.16;79.56;102200.41;5113629;28;20268;-35
2022/08/29 00:41:44;;;;;;;;;;;;;;;15.33;76.83;102202.53;5114236;28;20424;-35
2022/08/29 00:44:09;;;;;;;4.50;1.97;;;;;;;14.98;79.63;102194.97;5113990;28;19915;-35
2022/08/29 00:46:34;;;;;;;;;;;;;;;15.26;76.58;102213.50;5114694;28;20035;-35
2022/08/29 00:49:06;;;;;;;3.83;1.77;;;;;;;14.94;79.83;102205.53;5113791;28;19926;-35
2022/08/29 00:51:31;;;;;;;6.20;2.13;;;;;;;14.83;80.49;102203.53;5114158;28;20031;-35
2022/08/29 00:53:59;;;;;;;;;;;;;;;15.09;77.75;102210.59;5114413;28;20460;-35
2022/08/29 00:56:25;;;;;;;3.70;1.70;;;;;;;14.76;80.34;102199.22;5113985;28;20002;-35
2022/08/29 00:58:59;;;;;;;7.00;1.92;;;;;;;14.83;81.18;102211.69;5113928;28;20051;-35
2022/08/29 01:01:25;;;;;;;5.10;1.98;;;;;;;14.82;81.08;102211.94;5114133;28;20036;-35
2022/08/29 01:03:51;;;;;;;;;;;;;;;15.01;78.42;102210.88;5111957;28;20039;-35
2022/08/29 01:06:16;;;;;;;3.55;1.80;;;;;;;14.72;81.12;102211.63;5113684;28;19907;-35
2022/08/29 01:08:42;;;;;;;;;;;;;;;14.95;78.49;102206.34;5114068;28;20031;-34
2022/08/29 01:13:55;;;;;;;4.47;2.13;;;;;;;14.55;80.99;102201.31;5114107;28;20047;-34
2022/08/29 01:16:24;;;;;;;5.95;2.28;;;;;;;14.64;81.67;102210.00;5113897;28;20027;-35
2022/08/29 01:18:55;;;;;;;5.28;1.90;;;;;;;14.59;81.52;102215.28;5114217;28;20087;-34
2022/08/29 01:21:27;;;;;;;5.60;2.20;;;;;;;14.46;81.81;102202.63;5113693;28;20072;-35
2022/08/29 01:23:55;;;;;;;10.32;2.95;;;;;;;14.52;81.85;102218.09;5113416;27;20027;-35
2022/08/29 01:26:21;;;;;;;3.47;1.95;;;;;;;14.52;81.74;102218.09;5113192;28;20032;-35
2022/08/29 01:28:49;;;;;;;;;;;;;;;14.69;79.50;102218.38;5113782;28;20023;-35
2022/08/29 01:31:19;;;;;;;;;;;;;;;14.69;78.48;102212.91;5113380;28;20355;-34
2022/08/29 01:33:52;;;;;;;6.18;2.30;;;;;;;14.42;81.62;102206.84;5113368;28;19912;-34
2022/08/29 01:36:24;;;;;;;4.30;1.90;;;;;;;14.39;82.07;102210.00;5113718;28;20055;-35
2022/08/29 01:38:50;;;;;;;5.47;2.13;;;;;;;14.30;82.22;102208.63;5113259;28;20066;-34
2022/08/29 01:41:16;;;;;;;;;;;;;;;14.50;79.81;102212.06;5113840;28;20059;-35
2022/08/29 01:43:48;;;;;;;3.92;1.52;;;;;;;14.32;82.53;102201.09;5113266;28;20419;-35
2022/08/29 01:46:15;;;;;;;6.10;2.00;;;;;;;14.28;82.88;102199.88;5113916;28;20043;-35
2022/08/29 01:48:43;;;;;;;2.95;1.67;;;;;;;14.26;82.58;102202.00;5113949;28;20057;-35
2022/08/29 01:51:09;;;;;;;7.13;2.20;;;;;;;14.23;83.13;102207.88;5112568;28;20461;-35
2022/08/29 01:53:35;;;;;;;;;;;;;;;14.45;80.29;102203.69;5114075;28;20027;-35
2022/08/29 01:56:20;;;;;;;3.97;2.00;;;;;;;14.28;82.11;102213.47;5113393;28;19912;-35
2022/08/29 01:58:47;;;;;;;3.78;1.77;;;;;;;14.18;83.07;102212.06;5113224;28;20051;-35
2022/08/29 02:01:15;;;;;;;8.52;2.10;;;;;;;14.14;82.89;102205.41;5115267;28;20023;-35
2022/08/29 02:03:40;;;;;;;4.00;1.90;;;;;;;14.10;82.95;102197.91;5117067;28;20028;-35
2022/08/29 02:06:08;;;;;;;;;;;;;;;14.33;80.52;102214.47;5118055;28;20034;-35
2022/08/29 02:08:34;;;;;;;2.47;1.42;;;;;;;14.07;82.69;102199.19;5117858;28;19912;-35
2022/08/29 02:10:59;;;;;;;4.32;1.90;;;;;;;14.01;82.62;102191.09;5117108;28;20130;-35
2022/08/29 02:13:25;;;;;;;3.97;1.80;;;;;;;14.05;83.24;102209.44;5117909;28;20030;-35
2022/08/29 02:15:51;;;;;;;5.77;2.10;;;;;;;13.98;83.37;102210.56;5116973;28;20297;-35
2022/08/29 02:18:17;;;;;;;3.35;1.67;;;;;;;13.94;83.62;102196.56;5117631;28;20107;-35
2022/08/29 02:20:43;;;;;;;;;;;;;;;14.16;81.25;102197.03;5117124;28;20111;-35
2022/08/29 02:23:09;;;;;;;3.28;1.80;;;;;;;13.95;83.17;102200.94;5116430;28;20015;-33
2022/08/29 02:25:40;;;;;;;;;;;;;;;14.13;80.97;102208.34;5117308;28;20106;-34
2022/08/29 02:28:05;;;;;;;4.93;2.10;;;;;;;13.89;83.69;102216.28;5116618;28;19950;-35
2022/08/29 02:30:30;;;;;;;;;;;;;;;14.08;80.98;102211.75;5117022;28;20032;-35
2022/08/29 02:32:56;;;;;;;7.30;1.83;;;;;;;13.91;83.40;102216.06;5116842;28;19915;-35
2022/08/29 02:35:22;;;;;;;2.92;1.73;;;;;;;13.87;83.64;102214.84;5116509;28;20265;-35
2022/08/29 02:37:47;;;;;;;4.22;2.30;;;;;;;13.84;84.53;102228.84;5115898;28;20035;-35
2022/08/29 02:40:13;;;;;;;3.55;2.08;;;;;;;13.87;84.26;102231.16;5116311;28;20123;-35
2022/08/29 02:42:38;;;;;;;3.92;1.77;;;;;;;13.86;84.43;102229.50;5116989;28;20406;-35
2022/08/29 02:45:04;;;;;;;5.38;2.10;;;;;;;13.77;84.61;102228.09;5116132;27;20036;-34
2022/08/29 02:47:35;;;;;;;3.70;2.05;;;;;;;13.81;84.82;102232.88;5116873;28;20031;-34
2022/08/29 02:50:05;;;;;;;4.47;2.03;;;;;;;13.72;85.26;102230.63;5116553;28;20114;-34
2022/08/29 02:52:31;;;;;;;4.93;2.15;;;;;;;13.75;84.77;102233.72;5115784;28;20084;-35
2022/08/29 02:54:56;;;;;;;4.63;2.28;;;;;;;13.70;84.79;102216.41;5114971;28;20027;-34
2022/08/29 02:57:22;;;;;;;4.53;1.85;;;;;;;13.82;84.79;102233.69;5116153;28;20020;-34
2022/08/29 02:59:47;;;;;;;4.78;2.15;;;;;;;13.72;85.09;102227.91;5116553;28;20138;-34
2022/08/29 03:02:13;;;;;;;5.07;2.00;;;;;;;13.71;85.31;102242.53;5116854;28;20031;-35
2022/08/29 03:04:38;;;;;;;5.27;2.20;;;;;;;13.70;85.47;102233.53;5116014;28;20031;-34
2022/08/29 03:07:04;;;;;;;4.23;2.30;;;;;;;13.58;85.41;102211.66;5116057;28;20709;-34
2022/08/29 03:09:30;;;;;;;4.78;2.30;;;;;;;13.70;85.61;102221.84;5116323;28;20357;-34
2022/08/29 03:11:55;;;;;;;;;;;;;;;13.88;83.33;102221.94;5114609;28;20055;-34
2022/08/29 03:14:21;;;;;;;5.97;2.22;;;;;;;13.70;85.26;102224.56;5115505;28;19914;-34
2022/08/29 03:16:47;;;;;;;3.88;2.15;;;;;;;13.61;85.34;102232.13;5116194;28;20028;-35
2022/08/29 03:19:12;;;;;;;6.40;2.17;;;;;;;13.67;85.60;102223.13;5115657;27;20061;-34
2022/08/29 03:21:37;;;;;;;5.95;2.63;;;;;;;13.64;85.43;102223.53;5115605;28;20431;-34
2022/08/29 03:24:03;;;;;;;5.22;2.50;;;;;;;13.60;85.73;102214.16;5114160;28;20456;-34
2022/08/29 03:26:28;;;;;;;5.82;2.38;;;;;;;13.64;85.84;102227.09;5115942;28;20028;-34
2022/08/29 03:28:54;;;;;;;4.63;2.42;;;;;;;13.64;85.89;102220.81;5115686;28;20027;-34
2022/08/29 03:31:20;;;;;;;4.70;2.30;;;;;;;13.59;85.62;102213.31;5115266;28;20032;-34
2022/08/29 03:33:46;;;;;;;4.13;2.20;;;;;;;13.58;85.70;102217.09;5115141;28;20281;-34
2022/08/29 03:36:11;;;;;;;4.20;2.35;;;;;;;13.45;86.31;102197.31;5115945;28;20072;-35
2022/08/29 03:38:37;;;;;;;5.75;3.00;;;;;;;13.33;85.50;102180.88;5113630;28;20391;-34
2022/08/29 03:41:05;;;;;;;7.35;2.70;;;;;;;13.47;86.02;102206.94;5114858;28;20023;-34
2022/08/29 03:43:30;;;;;;;6.20;2.83;;;;;;;13.40;86.09;102209.66;5115533;28;20034;-35
2022/08/29 03:45:55;;;;;;;4.38;2.42;;;;;;;13.36;86.27;102196.72;5115101;28;20027;-34
2022/08/29 03:48:21;;;;;;;6.82;2.88;;;;;;;13.47;86.17;102206.94;5115436;28;20043;-34
2022/08/29 03:50:46;;;;;;;6.18;2.67;;;;;;;13.44;86.19;102204.63;5115478;28;20027;-34
2022/08/29 03:53:12;;;;;;;5.13;2.13;;;;;;;13.43;86.44;102202.13;5114824;28;20031;-35
2022/08/29 03:55:37;;;;;;;4.47;2.45;;;;;;;13.29;86.29;102177.75;5114934;28;20286;-34
2022/08/29 03:58:02;;;;;;;4.53;2.17;;;;;;;13.19;86.34;102163.78;5114964;28;20127;-34
2022/08/29 04:00:28;;;;;;;6.18;2.22;;;;;;;13.37;86.47;102188.38;5114919;28;20027;-34
2022/08/29 04:02:54;;;;;;;4.18;2.33;;;;;;;13.28;86.29;102186.94;5115592;28;20031;-34
2022/08/29 04:05:19;;;;;;;;;;;;;;;13.46;84.26;102180.78;5113938;28;20023;-35
2022/08/29 04:07:53;;;;;;;3.65;2.20;;;;;;;13.20;86.30;102181.72;5115061;28;19914;-34
2022/08/29 04:10:31;;;;;;;4.07;2.03;;;;;;;13.15;86.98;102176.94;5114721;28;20039;-34
2022/08/29 04:12:57;;;;;;;4.57;2.65;;;;;;;13.10;86.66;102181.34;5114422;27;20039;-34
2022/08/29 04:15:24;;;;;;;4.55;2.28;;;;;;;13.04;86.66;102172.19;5115025;28;20032;-34
2022/08/29 04:17:53;;;;;;;4.25;2.15;;;;;;;13.07;86.92;102184.50;5114811;28;20352;-34
2022/08/29 04:20:19;;;;;;;3.95;2.15;;;;;;;13.05;87.57;102189.31;5114573;28;20077;-34
2022/08/29 04:22:45;;;;;;;5.50;2.55;;;;;;;13.00;86.89;102189.97;5113838;28;20113;-34
2022/08/29 04:25:12;;;;;;;7.18;2.53;;;;;;;13.05;86.88;102201.00;5114884;27;20053;-34
2022/08/29 04:27:38;;;;;;;4.90;2.38;;;;;;;12.93;86.87;102194.56;5114419;28;20062;-34
2022/08/29 04:30:11;;;;;;;5.07;2.55;;;;;;;12.87;87.50;102203.56;5114841;28;20070;-34
2022/08/29 04:32:36;;;;;;;4.90;2.40;;;;;;;12.93;87.51;102201.88;5114774;28;20371;-34
2022/08/29 04:35:02;;;;;;;3.90;2.25;;;;;;;12.97;87.56;102203.13;5113901;28;20073;-34
2022/08/29 04:37:28;;;;;;;7.03;2.70;;;;;;;12.97;87.11;102198.50;5114702;28;20065;-34
2022/08/29 04:39:53;;;;;;;5.50;2.50;;;;;;;12.87;87.16;102193.53;5113958;28;20048;-34
2022/08/29 04:42:18;;;;;;;7.23;2.47;;;;;;;12.97;87.25;102203.94;5114290;28;20118;-35
2022/08/29 04:44:44;;;;;;;5.88;2.67;;;;;;;12.94;87.52;102201.69;5113734;28;20051;-34
2022/08/29 04:47:10;;;;;;;5.15;2.58;;;;;;;12.93;87.48;102202.69;5114600;28;20023;-34
2022/08/29 04:49:35;;;;;;;5.78;2.80;;;;;;;12.90;87.25;102211.28;5114021;28;20497;-34
2022/08/29 04:52:01;;;;;;;7.27;2.87;;;;;;;12.88;87.64;102210.66;5114442;28;20112;-34
2022/08/29 04:54:26;;;;;;;3.95;2.55;;;;;;;12.98;87.85;102210.22;5113761;28;20585;-34
2022/08/29 04:56:52;;;;;;;5.77;2.30;;;;;;;12.88;87.65;102210.66;5114082;28;20084;-32
2022/08/29 04:59:18;;;;;;;4.93;2.97;;;;;;;12.88;88.14;102216.94;5114220;28;20158;-33
2022/08/29 05:01:45;;;;;;;3.92;2.50;;;;;;;12.82;87.99;102214.22;5113310;28;20333;-33
2022/08/29 05:04:10;;;;;;;4.78;2.58;;;;;;;12.85;88.39;102206.50;5113660;28;20066;-33
2022/08/29 05:06:36;;;;;;;6.97;2.85;;;;;;;12.82;88.65;102206.91;5113330;28;20402;-33
2022/08/29 05:09:01;;;;;;;4.05;2.78;;;;;;;12.93;87.90;102223.59;5113664;28;20020;-33
2022/08/29 05:11:31;;;;;;;5.27;3.07;;;;;;;12.94;88.47;102225.28;5113440;28;20028;-33
2022/08/29 05:13:58;;;;;;;4.93;2.70;;;;;;;13.02;88.52;102217.72;5113253;28;20336;-33
2022/08/29 05:16:23;;;;;;;5.00;2.85;;;;;;;12.98;88.29;102216.50;5113634;28;20035;-33
2022/08/29 05:18:49;;;;;;;6.75;2.90;;;;;;;13.03;88.39;102216.69;5113487;28;20031;-33
2022/08/29 05:21:30;;;;;;;6.68;3.05;;;;;;;13.09;88.69;102221.25;5113497;28;20031;-33
2022/08/29 05:23:57;;;;;;;8.23;3.30;;;;;;;13.01;88.71;102223.38;5113420;28;20033;-33
2022/08/29 05:26:23;;;;;;;7.57;3.28;;;;;;;13.07;88.81;102225.22;5113019;28;20110;-33
2022/08/29 05:28:49;;;;;;;6.50;3.40;;;;;;;13.06;88.55;102226.28;5113051;28;20027;-33
2022/08/29 05:31:14;;;;;;;5.07;3.05;;;;;;;13.23;88.96;102240.25;5111669;28;20055;-33
2022/08/29 05:33:41;;;;;;;6.22;3.42;;;;;;;13.12;88.46;102222.69;5112980;28;20107;-34
2022/08/29 05:36:06;;;;;;;6.85;3.40;;;;;;;13.25;88.43;102239.00;5112811;28;20425;-34
2022/08/29 05:38:32;;;;;;;6.28;3.55;;;;;;;13.30;88.05;102236.47;5113225;28;20035;-34
2022/08/29 05:40:57;;;;;;;7.38;3.00;;;;;;;13.42;88.33;102230.34;5112891;28;20054;-34
2022/08/29 05:43:23;;;;;;;6.13;2.97;;;;;;;13.42;88.30;102230.34;5113158;28;20555;-34
2022/08/29 05:45:48;;;;;;;;;;;;;;;13.58;86.51;102238.84;5113442;28;20028;-34
2022/08/29 05:48:16;;;;;;;6.75;3.63;;;;;;;13.49;87.30;102231.16;5113875;28;19908;-34
2022/08/29 05:50:43;;;;;;;4.40;3.10;;;;;;;13.45;87.72;102232.63;5113115;28;20028;-34
2022/08/29 05:53:11;;;;;;;6.68;3.05;;;;;;;13.63;88.00;102241.75;5113062;28;20036;-34
2022/08/29 05:55:41;;;;;;;5.70;3.00;;;;;;;13.68;87.64;102238.38;5113497;28;20062;-34
2022/08/29 05:58:06;;;;;;;5.88;3.40;;;;;;;13.73;86.81;102245.88;5113343;28;20099;-34
2022/08/29 06:00:31;;;;;;;5.97;3.15;;;;;;;13.80;86.35;102249.38;5112992;28;20039;-34
2022/08/29 06:02:57;;;;;;;5.68;3.70;;;;;;;13.74;86.62;102232.06;5113431;28;20413;-34
2022/08/29 06:05:22;;;;;;;6.53;3.67;;;;;;;13.87;87.25;102245.56;5113319;28;20031;-34
2022/08/29 06:07:47;;;;;;;6.20;4.00;;;;;;;13.96;85.74;102239.84;5113354;28;20058;-34
2022/08/29 06:10:13;;;;;;;5.17;3.30;;;;;;;13.92;86.74;102228.59;5111173;28;20327;-34
2022/08/29 06:12:38;;;;;;;7.55;4.13;;;;;;;14.12;86.97;102244.78;5113447;28;20098;-34
2022/08/29 06:15:03;;;;;;;;;;;;;;;14.24;85.34;102253.06;5113288;28;20039;-34
2022/08/29 06:17:29;;;;;;;7.47;3.33;;;;;;;14.23;86.97;102246.78;5112895;28;20244;-34
2022/08/29 06:19:54;;;;;;;9.03;3.27;;;;;;;14.20;85.43;102249.97;5113341;28;20073;-34
2022/08/29 06:22:21;;;;;;;;;;;;;;;14.38;84.88;102252.72;5113767;28;20100;-34
2022/08/29 06:24:46;;;;;;;5.80;3.55;;;;;;;14.30;86.34;102247.56;5112755;28;20009;-34
2022/08/29 06:27:12;;;;;;;;;;;;;;;14.47;85.02;102253.28;5111973;28;20106;-34
2022/08/29 06:29:37;;;;;;;8.60;4.20;;;;;;;14.36;85.95;102252.13;5112656;28;19911;-34
2022/08/29 06:32:03;;;;;;;7.30;3.92;;;;;;;14.39;85.26;102256.28;5112971;28;20269;-34
2022/08/29 06:34:28;;;;;;;;;;;;;;;14.55;84.60;102255.78;5112840;28;20038;-35
2022/08/29 06:36:53;;;;;;;6.60;3.53;;;;;;;14.40;85.70;102241.63;5113448;28;19908;-34
2022/08/29 06:39:19;;;;;;;8.55;4.03;;;;;;;14.45;84.88;102254.59;5113336;28;20027;-35
2022/08/29 06:41:45;;;;;;;8.02;4.15;;;;;;;14.40;85.33;102253.34;5112575;28;20027;-34
2022/08/29 06:44:10;;;;;;;8.55;4.18;;;;;;;14.51;83.90;102254.53;5113247;28;20024;-34
2022/08/29 06:46:41;;;;;;;5.90;3.60;;;;;;;14.33;84.50;102224.53;5114816;28;20027;-34
2022/08/29 06:49:10;;;;;;;6.20;3.50;;;;;;;14.61;83.79;102267.66;5116449;28;20063;-34
2022/08/29 06:51:37;;;;;;;5.82;3.63;;;;;;;14.68;84.46;102255.63;5116715;28;20177;-34
2022/08/29 06:54:05;;;;;;;6.75;4.00;;;;;;;14.70;81.36;102276.38;5116279;28;20015;-34
2022/08/29 06:56:31;;;;;;;7.63;3.72;;;;;;;14.82;82.56;102277.28;5115601;28;20378;-34
2022/08/29 06:58:56;;;;;;;;;;;;;;;14.99;82.43;102289.28;5116682;28;20051;-34
2022/08/29 07:01:22;;;;;;;5.68;3.38;;;;;;;14.90;81.77;102271.56;5116208;28;19977;-34
2022/08/29 07:03:48;;;;;;;7.68;4.22;;;;;;;15.05;81.57;102274.75;5115942;28;20059;-34
2022/08/29 07:06:16;;;;;;;10.30;5.00;;;;;;;15.09;81.92;102278.69;5116656;28;20118;-34
2022/08/29 07:08:42;;;;;;;7.25;4.22;;;;;;;15.11;82.13;102278.47;5116810;28;20196;-34
2022/08/29 07:11:07;;;;;;;;;;;;;;;15.28;81.96;102279.53;5116024;28;20059;-34
2022/08/29 07:13:34;;;;;;;8.27;4.70;;;;;;;15.38;82.15;102276.28;5115817;28;20365;-34
2022/08/29 07:15:59;;;;;;;7.07;4.22;;;;;;;15.49;80.17;102285.56;5115899;28;20028;-34
2022/08/29 07:18:25;;;;;;;;;;;;;;;15.60;80.51;102282.91;5116461;28;20076;-34
2022/08/29 07:20:51;;;;;;;7.07;4.50;;;;;;;15.60;80.37;102272.00;5115890;28;20340;-34
2022/08/29 07:23:16;;;;;;;7.00;4.22;;;;;;;15.52;80.57;102255.97;5115710;28;20253;-34
2022/08/29 07:25:42;;;;;;;;;;;;;;;15.74;80.75;102274.56;5116118;28;20030;-34
2022/08/29 07:28:07;;;;;;;8.13;4.60;;;;;;;15.71;80.32;102259.50;5115895;28;19909;-34
2022/08/29 07:30:32;;;;;;;;;;;;;;;15.97;80.52;102263.75;5114382;28;20086;-35
2022/08/29 07:32:58;;;;;;;7.20;4.37;;;;;;;16.02;79.54;102268.53;5115368;28;19911;-34
2022/08/29 07:35:24;;;;;;;;;;;;;;;16.17;79.66;102258.00;5116211;28;20296;-34
2022/08/29 07:37:50;;;;;;;7.90;4.63;;;;;;;16.18;78.90;102265.94;5115853;28;19908;-34
2022/08/29 07:40:16;;;;;;;;;;;;;;;16.33;79.23;102270.13;5115845;28;20032;-34
2022/08/29 07:42:42;;;;;;;8.07;4.18;;;;;;;16.28;77.11;102256.34;5115392;27;19911;-35
2022/08/29 07:45:10;;;;;;;5.32;4.55;;;;;;;16.36;76.33;102266.94;5115344;28;20111;-34
2022/08/29 07:47:35;;;;;;;7.55;4.28;;;;;;;16.31;76.13;102262.19;5115989;28;20054;-34
2022/08/29 07:50:03;;;;;;;;;;;;;;;16.47;76.63;102260.66;5115744;28;20028;-34
2022/08/29 07:52:28;;;;;;;8.82;4.88;;;;;;;16.33;76.58;102256.47;5115969;27;19919;-34
2022/08/29 07:54:54;;;;;;;;;;;;;;;16.55;77.19;102257.59;5116071;28;20027;-34
2022/08/29 07:57:19;;;;;;;8.45;4.65;;;;;;;16.55;75.15;102254.03;5115043;28;20014;-34
2022/08/29 07:59:44;;;;;;;;;;;;;;;16.68;75.73;102265.53;5114814;28;20054;-34
2022/08/29 08:02:10;;;;;;;9.73;5.33;;;;;;;16.52;76.84;102265.41;5114579;28;20297;-34
2022/08/29 08:04:35;;;;;;;;;;;;;;;16.76;76.56;102260.81;5114933;28;20271;-34
2022/08/29 08:07:01;;;;;;;5.53;4.37;;;;;;;16.78;75.58;102245.00;5115175;28;19951;-34
2022/08/29 08:09:26;;;;;;;;;;;;;;;16.91;76.05;102252.97;5115582;28;20315;-34
2022/08/29 08:11:52;;;;;;;10.88;4.65;;;;;;;16.92;74.55;102246.44;5115037;28;19912;-34
2022/08/29 08:14:17;;;;;;;;;;;;;;;17.13;75.71;102262.22;5115215;28;20470;-34
2022/08/29 08:16:43;;;;;;;8.07;4.38;;;;;;;17.09;73.04;102261.03;5114429;28;19916;-34
2022/08/29 08:19:08;;;;;;;;;;;;;;;17.27;74.99;102270.13;5115572;28;20067;-34
2022/08/29 08:21:34;;;;;;;8.57;4.20;;;;;;;17.23;71.85;102259.69;5114566;28;19912;-34
2022/08/29 08:24:00;;;;;;;;;;;;;;;17.41;73.62;102263.31;5114770;28;20099;-34
2022/08/29 08:26:25;;;;;;;8.32;4.85;;;;;;;17.28;69.48;102255.41;5114593;28;19999;-34
2022/08/29 08:28:51;;;;;;;;;;;;;;;17.47;71.89;102262.34;5114769;28;20024;-35
2022/08/29 08:31:17;;;;;;;8.15;4.30;;;;;;;17.43;69.23;102255.72;5114149;28;19908;-34
2022/08/29 08:33:43;;;;;;;;;;;;;;;17.58;71.43;102261.50;5114839;28;20031;-34
2022/08/29 08:36:20;;;;;;;9.23;4.00;;;;;;;17.39;69.66;102254.53;5113717;28;20255;-34
2022/08/29 08:38:46;;;;;;;7.47;3.90;;;;;;;17.44;67.56;102266.41;5113883;28;20084;-34
2022/08/29 08:41:18;;;;;;;7.43;4.00;;;;;;;17.48;68.67;102270.31;5114003;28;20076;-34
2022/08/29 08:44:03;;;;;;;9.07;3.90;;;;;;;17.57;69.06;102268.03;5114847;28;20066;-34
2022/08/29 08:46:35;;;;;;;9.32;4.38;;;;;;;17.62;69.42;102270.88;5114246;28;20075;-34
2022/08/29 08:49:09;;;;;;;9.63;4.40;;;;;;;17.70;67.96;102266.91;5114555;28;20031;-34
2022/08/29 08:51:38;;;;;;;7.43;4.22;;;;;;;17.81;67.68;102262.47;5114021;28;20118;-35
2022/08/29 08:54:13;;;;;;;7.75;3.85;;;;;;;17.92;68.23;102247.94;5113935;28;20038;-34
2022/08/29 08:56:46;;;;;;;6.80;4.28;;;;;;;18.19;66.49;102259.06;5114338;28;20042;-34
2022/08/29 08:59:16;;;;;;;7.30;4.40;;;;;;;18.34;66.23;102255.75;5114253;28;20051;-34
2022/08/29 09:01:59;;;;;;;7.25;4.03;;;;;;;18.51;65.00;102259.34;5113699;28;20027;-34
2022/08/29 09:04:39;;;;;;;7.72;4.07;;;;;;;18.39;63.61;102255.84;5113965;28;20035;-34
2022/08/29 09:07:23;;;;;;;7.57;4.05;;;;;;;18.44;66.61;102255.91;5114227;28;20104;-34
2022/08/29 09:10:14;;;;;;;6.18;3.72;;;;;;;18.44;65.52;102261.41;5113628;28;20027;-34
2022/08/29 09:12:57;;;;;;;7.78;4.22;;;;;;;18.33;63.77;102262.31;5014213;28;20068;-35
2022/08/29 09:15:38;;;;;;;5.55;3.53;;;;;;;18.40;65.08;102257.53;5031199;28;20108;-35
2022/08/29 09:18:10;;;;;;;6.78;3.45;;;;;;;18.39;62.96;102256.66;5030711;28;20151;-35
2022/08/29 09:20:38;;;;;;;7.15;2.65;;;;;;;18.25;58.87;102269.88;5030534;28;20033;-35
2022/08/29 09:23:23;;;;;;;6.40;2.72;;;;;;;18.22;60.13;102245.72;5030521;28;20045;-35
2022/08/29 09:25:50;;;;;;;5.70;2.70;;;;;;;18.35;59.31;102257.41;5030483;28;20030;-35
2022/08/29 09:28:16;;;;;;;5.40;2.45;;;;;;;18.40;59.13;102260.25;5030780;28;20049;-34
2022/08/29 09:30:44;;;;;;;6.18;2.33;;;;;;;18.43;60.56;102249.63;5030485;28;20057;-35
2022/08/29 09:33:15;;;;;;;6.57;2.83;;;;;;;18.43;58.10;102270.69;5031075;28;20033;-35
2022/08/29 09:35:46;;;;;;;6.95;3.22;;;;;;;18.45;57.93;102268.56;5030564;28;20041;-36
2022/08/29 09:38:17;;;;;;;6.05;2.58;;;;;;;18.40;57.00;102266.56;5031415;28;20029;-35
2022/08/29 09:40:51;;;;;;;6.15;3.10;;;;;;;18.35;58.25;102250.06;5030470;28;20037;-34
2022/08/29 09:43:21;;;;;;;6.78;3.13;;;;;;;18.44;58.64;102277.84;5030916;28;20117;-35
2022/08/29 09:46:07;;;;;;;5.22;2.78;;;;;;;18.51;58.93;102273.03;5030356;28;20040;-34
2022/08/29 09:48:35;;;;;;;6.78;3.13;;;;;;;18.58;58.58;102275.59;5041289;28;20026;-35
2022/08/29 09:51:37;;;;;;;9.38;2.67;;;;;;;18.82;58.85;102274.34;5113250;28;20471;-34
2022/08/29 09:54:24;;;;;;;6.18;2.22;;;;;;;18.78;57.19;102259.50;5030721;28;20041;-34
2022/08/29 09:57:09;;;;;;;6.32;2.50;;;;;;;18.99;58.92;102271.59;5030433;28;20371;-34
2022/08/29 09:59:38;;;;;;;6.60;2.72;;;;;;;18.92;55.47;102284.63;5030890;28;20107;-34
2022/08/29 10:02:26;;;;;;;6.75;2.78;;;;;;;18.89;57.24;102271.44;5030201;28;20057;-34
2022/08/29 10:05:26;;;;;;;4.97;2.85;;;;;;;18.71;56.19;102256.94;5030434;28;20037;-34
2022/08/29 10:07:52;;;;;;;5.80;2.65;;;;;;;18.83;55.87;102269.69;5030975;28;20033;-34
2022/08/29 10:10:21;;;;;;;6.25;3.08;;;;;;;19.00;56.94;102263.09;5030232;28;20042;-34
2022/08/29 10:13:14;;;;;;;6.63;2.78;;;;;;;19.15;57.31;102246.03;5030394;28;20049;-35
2022/08/29 10:15:45;;;;;;;4.00;2.20;;;;;;;19.46;55.33;102239.00;5013284;28;20091;-35
2022/08/29 10:18:26;;;;;;;5.38;2.25;;;;;;;19.74;55.07;102248.13;5031346;28;20033;-35
2022/08/29 10:21:14;;;;;;;4.22;2.35;;;;;;;19.74;52.88;102239.88;5030975;28;20037;-34
2022/08/29 10:24:12;;;;;;;5.68;2.67;;;;;;;19.97;53.31;102252.47;5034355;28;20052;-34
2022/08/29 10:26:47;;;;;;;5.38;2.17;;;;;;;19.94;52.61;102252.97;5034210;28;20366;-35
2022/08/29 10:29:31;;;;;;;8.07;2.97;;;;;;;19.72;53.86;102266.78;5063467;28;20458;-35
2022/08/29 10:32:24;;;;;;;5.53;2.85;;;;;;;19.69;54.35;102262.63;5116467;28;20036;-34
2022/08/29 10:35:14;;;;;;;7.57;2.55;;;;;;;19.70;55.51;102252.47;5116830;28;20035;-34
2022/08/29 10:37:49;;;;;;;5.50;2.47;;;;;;;19.90;55.11;102246.34;5116903;28;20084;-34
2022/08/29 10:40:29;;;;;;;4.97;2.47;;;;;;;20.04;55.75;102253.06;5116440;28;20066;-34
2022/08/29 10:43:20;;;;;;;5.20;2.90;;;;;;;20.31;55.95;102259.38;5116893;28;20029;-34
2022/08/29 10:46:08;;;;;;;6.82;2.92;;;;;;;20.18;53.45;102250.72;5116705;28;20032;-35
2022/08/29 10:48:48;;;;;;;6.57;2.97;;;;;;;19.89;53.46;102252.94;5117329;28;20479;-35
2022/08/29 10:51:32;;;;;;;6.45;2.83;;;;;;;19.86;54.28;102248.78;5116366;28;20058;-34
2022/08/29 10:54:10;;;;;;;5.95;2.60;;;;;;;20.09;53.41;102228.41;5116790;28;20102;-35
2022/08/29 10:56:43;;;;;;;7.47;2.60;;;;;;;20.48;52.04;102233.69;5116862;28;20421;-34
2022/08/29 10:59:21;;;;;;;9.77;3.10;;;;;;;20.70;49.95;102228.91;5115977;28;20436;-35
2022/08/29 11:01:59;;;;;;;6.68;2.75;;;;;;;20.88;52.20;102229.53;5116050;28;20110;-35
2022/08/29 11:04:36;;;;;;;6.53;2.88;;;;;;;20.84;50.85;102223.78;5116259;28;20026;-34
2022/08/29 11:07:04;;;;;;;4.82;2.63;;;;;;;20.79;51.54;102216.31;5116072;28;20031;-34
2022/08/29 11:09:41;;;;;;;5.72;2.58;;;;;;;20.90;51.17;102216.38;5115854;28;20525;-34
2022/08/29 11:12:14;;;;;;;6.70;2.75;;;;;;;20.96;50.20;102215.28;5116105;28;20077;-34
2022/08/29 11:14:47;;;;;;;6.47;2.88;;;;;;;20.87;51.67;102200.41;5115762;28;20045;-34
2022/08/29 11:17:15;;;;;;;4.10;2.20;;;;;;;21.24;50.02;102211.31;5116153;28;20175;-35
2022/08/29 11:20:15;;;;;;;6.72;2.40;;;;;;;21.56;50.40;102209.19;5114573;28;20109;-35
2022/08/29 11:22:48;;;;;;;4.88;2.55;;;;;;;21.68;49.66;102211.72;5116357;28;20031;-35
2022/08/29 11:25:16;;;;;;;8.35;2.63;;;;;;;21.53;48.56;102187.75;5116033;27;20032;-34
2022/08/29 11:28:12;;;;;;;5.07;2.60;;;;;;;21.77;49.09;102199.06;5116158;28;20024;-35
2022/08/29 11:31:02;;;;;;;5.35;2.55;;;;;;;21.52;49.46;102197.09;5116128;28;20029;-34
2022/08/29 11:33:51;;;;;;;5.05;2.50;;;;;;;21.30;49.21;102183.56;5115090;28;20034;-35
2022/08/29 11:36:27;;;;;;;6.75;3.00;;;;;;;21.27;51.12;102184.06;5115240;28;20024;-35
2022/08/29 11:39:15;;;;;;;5.97;2.90;;;;;;;21.37;50.48;102190.72;5116082;28;20081;-35
2022/08/29 11:41:44;;;;;;;4.63;2.80;;;;;;;21.12;50.44;102178.50;5102518;28;20036;-35
2022/08/29 11:44:27;;;;;;;6.22;2.85;;;;;;;21.04;52.28;102168.88;5116155;28;20375;-34
2022/08/29 11:46:53;;;;;;;5.88;2.60;;;;;;;21.18;50.71;102163.69;5115853;28;20030;-34